createdAt,value
2023-05-11T00:00:22.295Z,99662.91
2023-05-11T00:02:51.313Z,99662.06
2023-05-11T00:05:20.580Z,99664.63
2023-05-11T00:07:50.119Z,99664.63
2023-05-11T00:10:20.647Z,99664.66
2023-05-11T00:12:49.391Z,99656.19
2023-05-11T00:15:18.190Z,99661.34
2023-05-11T00:17:47.080Z,99650.25
2023-05-11T00:20:16.215Z,99658.78
2023-05-11T00:22:45.681Z,99654.53
2023-05-11T00:25:14.790Z,99657.97
2023-05-11T00:27:46.418Z,99657.97
2023-05-11T00:30:16.347Z,99656.28
2023-05-11T00:32:46.350Z,99652.88
2023-05-11T00:35:14.916Z,99653.75
2023-05-11T00:37:43.795Z,99658.00
2023-05-11T00:40:13.298Z,99656.31
2023-05-11T00:42:42.154Z,99658.84
2023-05-11T00:45:12.671Z,99657.09
2023-05-11T00:47:42.477Z,99653.69
2023-05-11T00:50:11.843Z,99654.50
2023-05-11T00:52:40.988Z,99648.53
2023-05-11T00:55:11.056Z,99647.75
2023-05-11T00:57:40.455Z,99653.75
2023-05-11T01:00:13.672Z,99650.31
2023-05-11T01:02:42.835Z,99646.09
2023-05-11T01:05:11.907Z,99646.91
2023-05-11T01:07:50.467Z,99643.50
2023-05-11T01:10:25.422Z,99639.25
2023-05-11T01:13:01.059Z,99641.78
2023-05-11T01:15:37.472Z,99639.19
2023-05-11T01:18:19.511Z,99648.56
2023-05-11T01:20:51.450Z,99642.59
2023-05-11T01:23:46.211Z,99647.75
2023-05-11T01:26:36.633Z,99644.34
2023-05-11T01:29:28.220Z,99647.72
2023-05-11T01:32:17.247Z,99642.63
2023-05-11T01:34:47.814Z,99654.53
2023-05-11T01:37:20.938Z,99654.56
2023-05-11T01:39:54.439Z,99649.41
2023-05-11T01:42:32.193Z,99659.66
2023-05-11T01:45:03.167Z,99663.09
2023-05-11T01:47:36.477Z,99652.78
2023-05-11T01:50:07.837Z,99658.72
2023-05-11T01:52:38.183Z,99653.59
2023-05-11T01:55:10.224Z,99647.63
2023-05-11T01:57:40.353Z,99646.81
2023-05-11T02:00:10.359Z,99644.28
2023-05-11T02:02:47.914Z,99644.28
2023-05-11T02:05:21.119Z,99635.75
2023-05-11T02:07:52.742Z,99640.00
2023-05-11T02:10:26.451Z,99645.09
2023-05-11T02:12:56.167Z,99642.56
2023-05-11T02:15:28.399Z,99646.81
2023-05-11T02:18:00.574Z,99640.81
2023-05-11T02:20:30.225Z,99642.53
2023-05-11T02:23:00.158Z,99640.81
2023-05-11T02:25:31.432Z,99640.81
2023-05-11T02:28:00.345Z,99643.38
2023-05-11T02:30:33.558Z,99641.66
2023-05-11T02:33:07.825Z,99645.03
2023-05-11T02:35:44.224Z,99636.56
2023-05-11T02:38:16.106Z,99639.91
2023-05-11T02:40:50.108Z,99635.59
2023-05-11T02:43:26.010Z,99637.31
2023-05-11T02:46:04.630Z,99632.19
2023-05-11T02:48:40.457Z,99631.31
2023-05-11T02:51:13.102Z,99628.72
2023-05-11T02:53:50.412Z,99635.50
2023-05-11T02:56:20.129Z,99632.91
2023-05-11T02:58:50.369Z,99633.75
2023-05-11T03:01:23.674Z,99630.28
2023-05-11T03:03:54.248Z,99632.84
2023-05-11T03:06:24.639Z,99631.13
2023-05-11T03:08:54.068Z,99633.66
2023-05-11T03:11:23.600Z,99632.00
2023-05-11T03:13:53.105Z,99633.66
2023-05-11T03:16:24.153Z,99637.91
2023-05-11T03:18:56.563Z,99621.78
2023-05-11T03:21:27.634Z,99619.22
2023-05-11T03:23:58.727Z,99636.22
2023-05-11T03:26:30.477Z,99640.44
2023-05-11T03:29:01.603Z,99632.72
2023-05-11T03:31:30.501Z,99635.25
2023-05-11T03:34:02.881Z,99633.53
2023-05-11T03:36:37.086Z,99626.69
2023-05-11T03:39:06.454Z,99630.13
2023-05-11T03:41:36.701Z,99636.91
2023-05-11T03:44:08.997Z,99641.19
2023-05-11T03:46:42.657Z,99642.00
2023-05-11T03:49:15.837Z,99641.94
2023-05-11T03:51:46.070Z,99635.13
2023-05-11T03:54:15.478Z,99643.63
2023-05-11T03:56:44.227Z,99633.31
2023-05-11T03:59:17.036Z,99640.19
2023-05-11T04:01:46.175Z,99628.31
2023-05-11T04:04:17.755Z,99633.41
2023-05-11T04:06:46.650Z,99639.38
2023-05-11T04:09:19.329Z,99635.94
2023-05-11T04:11:48.132Z,99649.59
2023-05-11T04:14:17.942Z,99648.75
2023-05-11T04:16:47.192Z,99650.47
2023-05-11T04:19:17.808Z,99647.03
2023-05-11T04:21:47.400Z,99656.38
2023-05-11T04:24:16.154Z,99657.19
2023-05-11T04:26:45.101Z,99650.31
2023-05-11T04:29:13.922Z,99654.50
2023-05-11T04:31:42.864Z,99654.41
2023-05-11T04:34:11.551Z,99650.88
2023-05-11T04:36:42.293Z,99649.94
2023-05-11T04:39:11.348Z,99655.03
2023-05-11T04:41:41.450Z,99656.69
2023-05-11T04:44:11.014Z,99655.78
2023-05-11T04:46:40.184Z,99660.84
2023-05-11T04:49:09.835Z,99661.63
2023-05-11T04:51:42.314Z,99660.69
2023-05-11T04:54:11.269Z,99658.94
2023-05-11T04:56:41.225Z,99668.31
2023-05-11T04:59:11.485Z,99670.78
2023-05-11T05:01:40.432Z,99651.19
2023-05-11T05:04:10.044Z,99664.69
2023-05-11T05:06:42.011Z,99660.38
2023-05-11T05:09:11.379Z,99658.63
2023-05-11T05:11:40.372Z,99671.44
2023-05-11T05:14:09.380Z,99662.88
2023-05-11T05:16:38.179Z,99667.91
2023-05-11T05:19:07.579Z,99667.91
2023-05-11T05:21:37.112Z,99675.53
2023-05-11T05:24:11.498Z,99672.06
2023-05-11T05:26:41.035Z,99669.47
2023-05-11T05:29:10.905Z,99667.78
2023-05-11T05:31:40.397Z,99675.31
2023-05-11T05:34:09.371Z,99676.94
2023-05-11T05:36:39.383Z,99677.69
2023-05-11T05:39:12.206Z,99674.19
2023-05-11T05:41:43.233Z,99674.13
2023-05-11T05:44:13.136Z,99672.31
2023-05-11T05:46:42.241Z,99679.16
2023-05-11T05:49:11.152Z,99679.91
2023-05-11T05:51:40.714Z,99679.00
2023-05-11T05:54:11.377Z,99677.16
2023-05-11T05:56:41.132Z,99685.56
2023-05-11T05:59:11.189Z,99691.47
2023-05-11T06:01:46.419Z,99691.47
2023-05-11T06:04:17.263Z,99699.09
2023-05-11T06:06:46.306Z,99686.25
2023-05-11T06:09:16.761Z,99687.75
2023-05-11T06:11:45.791Z,99693.56
2023-05-11T06:14:14.825Z,99692.59
2023-05-11T06:16:47.160Z,99696.69
2023-05-11T06:19:16.602Z,99699.09
2023-05-11T06:21:46.706Z,99691.22
2023-05-11T06:24:18.306Z,99691.31
2023-05-11T06:26:47.776Z,99698.06
2023-05-11T06:29:19.439Z,99691.16
2023-05-11T06:31:49.807Z,99696.25
2023-05-11T06:34:19.666Z,99699.69
2023-05-11T06:36:48.565Z,99698.72
2023-05-11T06:39:18.938Z,99697.81
2023-05-11T06:41:48.146Z,99704.47
2023-05-11T06:44:16.729Z,99705.19
2023-05-11T06:46:47.174Z,99697.47
2023-05-11T06:49:15.945Z,99703.38
2023-05-11T06:51:47.373Z,99695.47
2023-05-11T06:54:16.209Z,99695.34
2023-05-11T06:56:46.602Z,99689.16
2023-05-11T06:59:15.387Z,99680.53
2023-05-11T07:01:44.419Z,99687.28
2023-05-11T07:04:13.760Z,99687.06
2023-05-11T07:06:42.500Z,99677.50
2023-05-11T07:09:11.341Z,99684.22
2023-05-11T07:11:40.058Z,99677.06
2023-05-11T07:14:10.423Z,99675.91
2023-05-11T07:16:39.278Z,99675.84
2023-05-11T07:19:08.700Z,99673.16
2023-05-11T07:21:38.355Z,99678.41
2023-05-11T07:24:07.693Z,99674.88
2023-05-11T07:26:36.637Z,99684.97
2023-05-11T07:29:05.477Z,99668.50
2023-05-11T07:31:36.624Z,99670.06
2023-05-11T07:34:05.683Z,99674.28
2023-05-11T07:36:34.274Z,99675.94
2023-05-11T07:39:03.078Z,99670.81
2023-05-11T07:41:31.778Z,99677.53
2023-05-11T07:44:02.672Z,99682.50
2023-05-11T07:46:31.965Z,99675.38
2023-05-11T07:49:15.695Z,99678.53
2023-05-11T07:51:49.635Z,99678.34
2023-05-11T07:54:19.555Z,99677.22
2023-05-11T07:56:50.591Z,99679.44
2023-05-11T07:59:19.252Z,99679.00
2023-05-11T08:01:48.140Z,99672.03
2023-05-11T08:04:18.447Z,99675.34
2023-05-11T08:06:48.467Z,99682.19
2023-05-11T08:09:22.234Z,99681.16
2023-05-11T08:11:51.150Z,99675.13
2023-05-11T08:14:21.410Z,99671.78
2023-05-11T08:16:50.677Z,99673.63
2023-05-11T08:19:20.776Z,99675.16
2023-05-11T08:21:49.706Z,99665.31
2023-05-11T08:24:18.539Z,99665.88
2023-05-11T08:26:47.626Z,99667.38
2023-05-11T08:29:16.389Z,99664.34
2023-05-11T08:31:45.753Z,99666.66
2023-05-11T08:34:19.707Z,99664.72
2023-05-11T08:36:50.687Z,99663.47
2023-05-11T08:39:33.299Z,99662.00
2023-05-11T08:42:11.116Z,99654.00
2023-05-11T08:44:42.076Z,99644.75
2023-05-11T08:49:44.584Z,99652.19
2023-05-11T08:52:18.076Z,99655.47
2023-05-11T08:54:47.035Z,99657.28
2023-05-11T08:57:16.242Z,99653.19
2023-05-11T08:59:47.479Z,99654.84
2023-05-11T09:02:18.914Z,99658.09
2023-05-11T09:04:49.100Z,99648.44
2023-05-11T09:07:21.063Z,99649.41
2023-05-11T09:09:49.982Z,99622.59
2023-05-11T09:12:18.780Z,99645.31
2023-05-11T09:14:48.137Z,99636.84
2023-05-11T09:17:17.215Z,99632.34
2023-05-11T09:20:00.403Z,99640.97
2023-05-11T09:22:32.140Z,99632.72
2023-05-11T09:25:04.246Z,99633.13
2023-05-11T09:27:33.341Z,99632.75
2023-05-11T09:30:13.773Z,99630.81
2023-05-11T09:32:50.602Z,99630.31
2023-05-11T09:35:26.881Z,99622.66
2023-05-11T09:38:05.867Z,99628.25
2023-05-11T09:40:36.783Z,99629.91
2023-05-11T09:43:18.207Z,99617.19
2023-05-11T09:45:48.285Z,99615.88
2023-05-11T09:48:28.309Z,99609.84
2023-05-11T09:51:09.152Z,99609.63
2023-05-11T09:53:43.582Z,99607.22
2023-05-11T09:56:13.149Z,99606.47
2023-05-11T09:58:50.602Z,99603.72
2023-05-11T10:01:29.614Z,99594.88
2023-05-11T10:04:13.159Z,99597.03
2023-05-11T10:06:49.980Z,99597.31
2023-05-11T10:09:25.695Z,99593.94
2023-05-11T10:11:56.850Z,99594.31
2023-05-11T10:14:28.621Z,99590.63
2023-05-11T10:16:59.604Z,99587.75
2023-05-11T10:19:29.407Z,99585.97
2023-05-11T10:21:58.637Z,99582.94
2023-05-11T10:24:28.973Z,99577.53
2023-05-11T10:26:59.182Z,99574.16
2023-05-11T10:29:28.438Z,99570.66
2023-05-11T10:31:59.269Z,99574.16
2023-05-11T10:34:29.850Z,99571.41
2023-05-11T10:37:02.322Z,99570.38
2023-05-11T10:39:33.269Z,99568.66
2023-05-11T10:42:26.905Z,99576.72
2023-05-11T10:45:07.170Z,99555.13
2023-05-11T10:48:04.254Z,99565.00
2023-05-11T10:50:49.493Z,99564.69
2023-05-11T10:53:40.251Z,99557.34
2023-05-11T10:56:27.395Z,99558.25
2023-05-11T10:59:16.540Z,99555.19
2023-05-11T11:01:45.878Z,99557.59
2023-05-11T11:04:16.039Z,99554.28
2023-05-11T11:06:45.903Z,99555.91
2023-05-11T11:09:16.652Z,99554.34
2023-05-11T11:11:51.560Z,99546.63
2023-05-11T11:14:20.621Z,99548.91
2023-05-11T11:17:15.437Z,99547.72
2023-05-11T11:19:44.536Z,99548.53
2023-05-11T11:22:39.070Z,99550.22
2023-05-11T11:25:09.705Z,99548.19
2023-05-11T11:28:00.308Z,99540.69
2023-05-11T11:30:31.626Z,99545.47
2023-05-11T11:33:28.753Z,99543.66
2023-05-11T11:35:57.734Z,99541.75
2023-05-11T11:38:29.236Z,99545.78
2023-05-11T11:40:58.985Z,99546.81
2023-05-11T11:43:30.416Z,99550.44
2023-05-11T11:46:02.348Z,99537.59
2023-05-11T11:48:32.322Z,99548.13
2023-05-11T11:51:06.323Z,99541.63
2023-05-11T11:54:09.922Z,99551.16
2023-05-11T11:56:43.969Z,99535.06
2023-05-11T11:59:14.055Z,99537.72
2023-05-11T12:01:44.896Z,99534.69
2023-05-11T12:04:41.159Z,99534.22
2023-05-11T12:07:13.697Z,99532.56
2023-05-11T12:09:42.639Z,99534.22
2023-05-11T12:12:12.648Z,99532.25
2023-05-11T12:14:49.457Z,99511.66
2023-05-11T12:17:28.605Z,99527.09
2023-05-11T12:20:13.983Z,99529.81
2023-05-11T12:22:42.956Z,99519.63
2023-05-11T12:25:12.919Z,99506.47
2023-05-11T12:27:52.942Z,99526.69
2023-05-11T12:30:23.753Z,99516.81
2023-05-11T12:32:57.444Z,99508.41
2023-05-11T12:35:28.450Z,99507.84
2023-05-11T12:37:58.498Z,99496.03
2023-05-11T12:40:27.728Z,99495.13
2023-05-11T12:42:58.352Z,99509.22
2023-05-11T12:45:29.514Z,99500.09
2023-05-11T12:48:00.496Z,99507.78
2023-05-11T12:50:29.567Z,99506.69
2023-05-11T12:53:16.880Z,99500.59
2023-05-11T12:55:46.020Z,99498.22
2023-05-11T12:58:16.402Z,99501.28
2023-05-11T13:00:56.823Z,99494.13
2023-05-11T13:03:29.004Z,99493.91
2023-05-11T13:06:07.887Z,99488.13
2023-05-11T13:08:37.429Z,99495.22
2023-05-11T13:11:23.136Z,99489.50
2023-05-11T13:13:52.689Z,99484.31
2023-05-11T13:16:28.593Z,99487.56
2023-05-11T13:19:03.696Z,99479.31
2023-05-11T13:21:33.802Z,99483.13
2023-05-11T13:24:04.056Z,99485.72
2023-05-11T13:26:33.773Z,99484.53
2023-05-11T13:29:10.771Z,99469.25
2023-05-11T13:31:47.132Z,99471.34
2023-05-11T13:34:17.920Z,99470.09
2023-05-11T13:36:47.177Z,99466.88
2023-05-11T13:39:16.061Z,99470.44
2023-05-11T13:41:45.086Z,99468.53
2023-05-11T13:44:13.730Z,99468.13
2023-05-11T13:46:42.507Z,99465.03
2023-05-11T13:49:11.486Z,99467.69
2023-05-11T13:51:41.930Z,99474.00
2023-05-11T13:54:10.662Z,99467.00
2023-05-11T13:56:39.434Z,99464.31
2023-05-11T13:59:08.179Z,99467.81
2023-05-11T14:01:36.986Z,99464.09
2023-05-11T14:04:06.369Z,99468.00
2023-05-11T14:06:36.450Z,99462.34
2023-05-11T14:09:06.743Z,99458.00
2023-05-11T14:11:38.607Z,99456.34
2023-05-11T14:14:08.516Z,99459.59
2023-05-11T14:16:37.879Z,99456.59
2023-05-11T14:19:06.718Z,99455.81
2023-05-11T14:21:35.730Z,99448.31
2023-05-11T14:24:12.282Z,99444.69
2023-05-11T14:26:43.267Z,99447.19
2023-05-11T14:29:12.147Z,99443.50
2023-05-11T14:31:41.856Z,99439.81
2023-05-11T14:34:10.466Z,99434.03
2023-05-11T14:36:39.578Z,99441.31
2023-05-11T14:39:08.319Z,99426.19
2023-05-11T14:41:38.971Z,99433.69
2023-05-11T14:44:10.181Z,99426.19
2023-05-11T14:46:39.039Z,99425.63
2023-05-11T14:49:07.907Z,99428.28
2023-05-11T14:51:39.432Z,99434.91
2023-05-11T14:54:08.519Z,99434.19
2023-05-11T14:56:37.262Z,99434.06
2023-05-11T14:59:06.141Z,99437.84
2023-05-11T15:01:36.232Z,99429.22
2023-05-11T15:04:05.105Z,99431.81
2023-05-11T15:06:33.926Z,99428.34
2023-05-11T15:09:02.788Z,99430.97
2023-05-11T15:11:31.537Z,99425.56
2023-05-11T15:14:00.656Z,99422.50
2023-05-11T15:16:29.510Z,99432.63
2023-05-11T15:19:00.402Z,99441.19
2023-05-11T15:21:29.610Z,99436.00
2023-05-11T15:23:58.445Z,99441.59
2023-05-11T15:26:27.346Z,99438.44
2023-05-11T15:28:56.084Z,99437.81
2023-05-11T15:31:24.841Z,99438.69
2023-05-11T15:33:54.229Z,99442.22
2023-05-11T15:36:24.510Z,99429.91
2023-05-11T15:38:53.180Z,99430.28
2023-05-11T15:41:22.308Z,99431.44
2023-05-11T15:43:51.307Z,99429.63
2023-05-11T15:46:20.034Z,99427.03
2023-05-11T15:48:49.416Z,99421.47
2023-05-11T15:51:18.211Z,99423.50
2023-05-11T15:53:48.365Z,99428.31
2023-05-11T15:56:17.199Z,99422.69
2023-05-11T15:58:46.113Z,99420.25
2023-05-11T16:01:14.987Z,99426.63
2023-05-11T16:03:44.103Z,99421.97
2023-05-11T16:06:13.116Z,99418.75
2023-05-11T16:08:41.862Z,99427.88
2023-05-11T16:11:12.196Z,99428.19
2023-05-11T16:13:41.196Z,99434.47
2023-05-11T16:16:10.125Z,99439.66
2023-05-11T16:18:40.029Z,99391.69
2023-05-11T16:21:08.927Z,99432.50
2023-05-11T16:23:37.672Z,99432.78
2023-05-11T16:26:07.246Z,99433.66
2023-05-11T16:28:37.365Z,99433.75
2023-05-11T16:31:06.508Z,99422.78
2023-05-11T16:33:35.282Z,99429.06
2023-05-11T16:36:04.208Z,99425.72
2023-05-11T16:38:32.949Z,99430.25
2023-05-11T16:41:02.074Z,99432.03
2023-05-11T16:43:32.596Z,99437.28
2023-05-11T16:46:03.914Z,99440.91
2023-05-11T16:48:32.743Z,99429.81
2023-05-11T16:51:01.505Z,99435.06
2023-05-11T16:53:30.378Z,99437.78
2023-05-11T16:55:59.453Z,99435.25
2023-05-11T16:58:28.298Z,99432.72
2023-05-11T17:00:56.919Z,99431.44
2023-05-11T17:03:27.300Z,99427.22
2023-05-11T17:05:57.673Z,99419.59
2023-05-11T17:08:26.718Z,99431.63
2023-05-11T17:10:55.849Z,99432.66
2023-05-11T17:13:24.783Z,99430.31
2023-05-11T17:15:56.367Z,99445.97
2023-05-11T17:18:27.635Z,99445.31
2023-05-11T17:20:57.656Z,99456.66
2023-05-11T17:23:26.938Z,99449.94
2023-05-11T17:25:55.719Z,99451.84
2023-05-11T17:28:25.323Z,99455.47
2023-05-11T17:30:54.340Z,99459.06
2023-05-11T17:33:23.806Z,99460.13
2023-05-11T17:35:54.560Z,99454.22
2023-05-11T17:38:23.395Z,99456.81
2023-05-11T17:40:52.068Z,99456.09
2023-05-11T17:43:20.806Z,99461.44
2023-05-11T17:45:50.747Z,99461.56
2023-05-11T17:48:20.214Z,99456.56
2023-05-11T17:50:50.397Z,99466.94
2023-05-11T17:53:20.777Z,99447.78
2023-05-11T17:55:50.447Z,99460.72
2023-05-11T17:58:18.800Z,99470.22
2023-05-11T18:00:49.078Z,99485.09
2023-05-11T18:03:18.695Z,99473.28
2023-05-11T18:05:48.964Z,99477.91
2023-05-11T18:08:18.354Z,99480.91
2023-05-11T18:10:48.854Z,99484.69
2023-05-11T18:13:17.873Z,99492.69
2023-05-11T18:15:47.539Z,99482.84
2023-05-11T18:18:16.343Z,99490.59
2023-05-11T18:20:46.751Z,99500.16
2023-05-11T18:23:15.647Z,99502.97
2023-05-11T18:25:44.470Z,99508.28
2023-05-11T18:28:14.697Z,99502.34
2023-05-11T18:30:43.653Z,99505.16
2023-05-11T18:33:12.652Z,99500.25
2023-05-11T18:35:42.608Z,99504.81
2023-05-11T18:38:12.246Z,99504.31
2023-05-11T18:40:41.102Z,99507.75
2023-05-11T18:43:09.968Z,99506.88
2023-05-11T18:45:41.369Z,99510.47
2023-05-11T18:48:10.380Z,99512.34
2023-05-11T18:50:40.163Z,99513.34
2023-05-11T18:53:09.206Z,99516.94
2023-05-11T18:55:52.049Z,99520.44
2023-05-11T18:58:22.461Z,99517.16
2023-05-11T19:00:53.073Z,99502.78
2023-05-11T19:03:22.735Z,99521.41
2023-05-11T19:05:52.049Z,99523.28
2023-05-11T19:08:20.814Z,99520.78
2023-05-11T19:10:49.672Z,99522.38
2023-05-11T19:13:18.473Z,99525.75
2023-05-11T19:15:47.285Z,99523.97
2023-05-11T19:18:18.059Z,99529.03
2023-05-11T19:20:47.281Z,99523.19
2023-05-11T19:23:16.089Z,99530.91
2023-05-11T19:25:45.795Z,99530.91
2023-05-11T19:28:14.289Z,99531.03
2023-05-11T19:30:43.103Z,99529.59
2023-05-11T19:33:12.220Z,99537.66
2023-05-11T19:35:42.585Z,99538.88
2023-05-11T19:38:11.587Z,99539.97
2023-05-11T19:43:13.818Z,99546.69
2023-05-11T19:45:44.529Z,99545.16
2023-05-11T19:48:14.018Z,99539.34
2023-05-11T19:50:44.429Z,99551.41
2023-05-11T19:53:13.314Z,99554.22
2023-05-11T19:55:42.253Z,99545.81
2023-05-11T19:58:12.253Z,99552.75
2023-05-11T20:00:42.757Z,99547.75
2023-05-11T20:03:11.825Z,99559.78
2023-05-11T20:05:40.628Z,99556.56
2023-05-11T20:08:11.491Z,99553.25
2023-05-11T20:10:40.372Z,99556.88
2023-05-11T20:13:09.146Z,99557.91
2023-05-11T20:15:39.817Z,99558.91
2023-05-11T20:18:09.694Z,99555.53
2023-05-11T20:20:38.568Z,99552.13
2023-05-11T20:23:07.350Z,99554.75
2023-05-11T20:25:40.309Z,99553.91
2023-05-11T20:28:09.462Z,99555.81
2023-05-11T20:30:38.406Z,99560.22
2023-05-11T20:35:39.754Z,99585.97
2023-05-11T20:38:08.463Z,99579.09
2023-05-11T20:40:38.764Z,99583.41
2023-05-11T20:43:09.025Z,99589.53
2023-05-11T20:45:37.744Z,99582.03
2023-05-11T20:48:06.817Z,99584.53
2023-05-11T20:50:35.734Z,99588.63
2023-05-11T20:53:04.447Z,99595.56
2023-05-11T20:55:33.327Z,99596.44
2023-05-11T20:58:05.440Z,99598.22
2023-05-11T21:00:34.319Z,99594.03
2023-05-11T21:03:03.211Z,99603.50
2023-05-11T21:05:32.287Z,99596.72
2023-05-11T21:08:01.576Z,99607.81
2023-05-11T21:10:31.080Z,99601.91
2023-05-11T21:13:01.502Z,99602.13
2023-05-11T21:15:31.798Z,99604.09
2023-05-11T21:18:02.458Z,99602.38
2023-05-11T21:20:31.347Z,99608.34
2023-05-11T21:23:00.636Z,99606.63
2023-05-11T21:25:29.522Z,99607.47
2023-05-11T21:27:58.305Z,99604.00
2023-05-11T21:30:27.058Z,99605.81
2023-05-11T21:32:57.631Z,99614.44
2023-05-11T21:35:26.659Z,99616.50
2023-05-11T21:37:55.340Z,99609.84
2023-05-11T21:40:24.217Z,99611.72
2023-05-11T21:42:53.078Z,99620.41
2023-05-11T21:45:22.234Z,99615.34
2023-05-11T21:47:51.062Z,99627.34
2023-05-11T21:50:21.767Z,99624.88
2023-05-11T21:52:50.968Z,99627.59
2023-05-11T21:55:19.758Z,99629.41
2023-05-11T21:57:48.745Z,99625.16
2023-05-11T22:00:19.621Z,99631.97
2023-05-11T22:02:48.798Z,99631.09
2023-05-11T22:05:18.044Z,99627.75
2023-05-11T22:07:48.172Z,99638.00
2023-05-11T22:10:17.777Z,99644.03
2023-05-11T22:12:46.772Z,99630.38
2023-05-11T22:15:15.602Z,99644.78
2023-05-11T22:17:44.443Z,99643.03
2023-05-11T22:20:14.833Z,99645.59
2023-05-11T22:22:43.673Z,99640.53
2023-05-11T22:25:13.992Z,99644.13
2023-05-11T22:27:42.810Z,99653.66
2023-05-11T22:30:12.606Z,99647.75
2023-05-11T22:32:41.538Z,99642.63
2023-05-11T22:35:11.064Z,99650.47
2023-05-11T22:37:40.216Z,99642.88
2023-05-11T22:40:10.233Z,99646.34
2023-05-11T22:42:40.564Z,99649.00
2023-05-11T22:45:10.564Z,99645.59
2023-05-11T22:47:39.469Z,99651.63
2023-05-11T22:50:12.129Z,99650.78
2023-05-11T22:52:40.950Z,99657.59
2023-05-11T22:55:10.844Z,99651.63
2023-05-11T22:57:41.855Z,99650.81
2023-05-11T23:00:11.888Z,99647.44
2023-05-11T23:02:41.695Z,99651.75
2023-05-11T23:05:10.909Z,99651.66
2023-05-11T23:07:39.629Z,99648.25
2023-05-11T23:10:09.022Z,99646.53
2023-05-11T23:12:37.749Z,99643.06
2023-05-11T23:15:10.240Z,99647.28
2023-05-11T23:17:39.098Z,99642.31
2023-05-11T23:20:08.960Z,99643.97
2023-05-11T23:22:37.918Z,99642.31
2023-05-11T23:25:07.197Z,99638.97
2023-05-11T23:27:36.106Z,99635.63
2023-05-11T23:30:05.241Z,99639.09
2023-05-11T23:32:35.869Z,99640.06
2023-05-11T23:35:04.664Z,99635.84
2023-05-11T23:37:33.349Z,99640.97
2023-05-11T23:40:02.210Z,99637.59
2023-05-11T23:42:30.948Z,99638.53
2023-05-11T23:45:04.809Z,99630.84
2023-05-11T23:47:36.573Z,99635.16
2023-05-11T23:50:05.945Z,99632.56
2023-05-11T23:52:34.680Z,99634.28
2023-05-11T23:55:05.242Z,99634.34
2023-05-11T23:57:34.179Z,99643.72
